Boonville, CA (95415)

3:10 AM PDT on October 20, 2014 (GMT -0700)
Anderson Valley | Change Station
CLOSE
Current Station
Personal Weather Station
Location: Boonville, CA
Elevation: 410 ft
Nearby Weather Stations
4.2 Earthquake: Rio Dell, California (19 hours ago)  

Elev 410 ft 39.01 °N, 123.36 °W | Updated 4 minutes ago

Overcast
Overcast
59.3 °F
Feels Like 59.3 °F
N
2.0
Wind Variable Wind from SE
Gusts 8.0 mph

Today
High -- | Low -- °F
--% Chance of Precip.
Yesterday
High -- | Low -- °F
Precip. -- in
7:28 AM 6:27 PM
Waning Crescent, 12% visible
Pressure 29.88 in
Visibility 10.0 miles
Clouds Overcast 3600 ft
Dew Point 54 °F
Humidity 84%
Rainfall 0.00 in
Snow Depth Not available.
UV 0 out of 12
Pollen 4.40 out of 12
Air Quality Not available.
Flu Activity Sporadic
METAR KUKI 200956Z AUTO 00000KT 10SM OVC036 15/12 A2989 RMK AO2 SLP116 T01500122

More Conditions Fewer Conditions

Pressure 29.88 in
Visibility 10.0 miles
Clouds Overcast 3600 ft
Dew Point 54 °F
Humidity 84%
Rainfall 0.00 in
Snow Depth Not available.
UV 0 out of 12
Pollen 4.40 out of 12
Air Quality Not available.
Flu Activity Sporadic
METAR KUKI 200956Z AUTO 00000KT 10SM OVC036 15/12 A2989 RMK AO2 SLP116 T01500122

More Conditions Fewer Conditions

10-Day Weather Forecast

Almanac

Astronomy

Oct. 20, 2014 Rise Set
Actual Time 7:28 AM PDT 6:27 PM PDT
Civil Twilight 7:01 AM PDT 6:54 PM PDT
Nautical Twilight 6:29 AM PDT 7:25 PM PDT
Astronomical Twilight 5:59 AM PDT 7:56 PM PDT
Moon 4:23 AM PDT 4:51 PM PDT
Length of Visible Light 11h 53m
Length of Day
10h 59m
Waning Crescent, 12% of the Moon is Illuminated
Today
Waning Crescent
Oct 23
New
Oct 30
First Quarter
Nov 6
Full
Nov 14
Last Quarter

Today's Extremes

State Highs State Lows

Community

WunderPhotos

Upload Photos

1,763,326 photos uploaded!

Nearby

Snow Depth

Station Depth Elevation
Independence Lake 0 in 8450 ft
Squaw Valley 0 in 8200 ft
Independence Camp 0 in 7000 ft
Tahoe City Cross 0 in 6750 ft
Rubicon #2 1 in 7500 ft

Earthquake Activity

City Distance Mag. Time & Date
Cobb, California 29 miles 2.5 9:25 PM PDT
2014-10-19
Rio Dell, California 102 miles 4.2 7:24 AM PDT
2014-10-19
East Foothills, California 143 miles 2.6 8:16 AM PDT
2014-10-18
Minimum magnitude displayed is 2.5.

Coastal Water Temperatures

Place Temperature
Arena Cove, CA 60.1 °F
North Spit, CA 57.9 °F
Point Reyes, CA 61.0 °F
San Francisco, CA 62.1 °F
Richmond, CA 64.0 °F

Nearby Weather Stations